LTBU/TEQ METAR and TAF weather

Enter ICAO airport designator
Station Type Date Time Source
LTBU METAR 2021/01/16 02:20 UTC NOAA

LTBU 160220Z 03008KT CAVOK M00/M03 Q1013


Station Type Date Time Source
LTBU Decoded METAR 2021/01/16 02:20 UTC NOAA

Corlu, Turkey (LTBU) 41-08N 027-55E
Jan 15, 2021 - 09:20 PM EST / 2021.01.16 0220 UTC
Wind: from the NNE (030 degrees) at 9 MPH (8 KT):0
Visibility: greater than 7 mile(s):0
Temperature: 32 F (0 C)
Windchill: 24 F (-4 C):1
Dew Point: 26 F (-3 C)
Relative Humidity: 80%
Pressure (altimeter): 29.91 in. Hg (1013 hPa)
ob: LTBU 160220Z 03008KT CAVOK M00/M03 Q1013
cycle: 2

Station Type Date Time Source
LTBU TAF 2021/01/15 18:03 UTC NOAA

TAF LTBU 151640Z 1518/1618 VRB02KT 9999 SCT040
BECMG 1518/1520 CAVOK
BECMG 1606/1609 02012KT SCT025 BKN080
BECMG 1609/1612 03015G25KT 4000 -SHSN BLSN BKN008 BKN020
BECMG 1612/1615 34022G35KT 1600 SHSN BKN004 BKN017
TEMPO 1615/1618 +SHSN BKN002 BKN017

Example: see airport list